sensor_id;sensor_type;location;lat;lon;timestamp;P1;durP1;ratioP1;P2;durP2;ratioP2
20535;SDS011;10426;49.420;8.390;2023-02-12T00:00:38;22.83;;;20.33;;
20535;SDS011;10426;49.420;8.390;2023-02-12T00:03:05;22.55;;;20.05;;
20535;SDS011;10426;49.420;8.390;2023-02-12T00:05:32;22.83;;;20.53;;
20535;SDS011;10426;49.420;8.390;2023-02-12T00:08:00;21.67;;;19.10;;
20535;SDS011;10426;49.420;8.390;2023-02-12T00:10:26;21.27;;;19.00;;
20535;SDS011;10426;49.420;8.390;2023-02-12T00:12:53;22.17;;;19.65;;
20535;SDS011;10426;49.420;8.390;2023-02-12T00:15:20;22.67;;;19.80;;
20535;SDS011;10426;49.420;8.390;2023-02-12T00:17:46;23.83;;;20.67;;
20535;SDS011;10426;49.420;8.390;2023-02-12T00:20:13;23.55;;;20.77;;
20535;SDS011;10426;49.420;8.390;2023-02-12T00:22:40;23.13;;;20.60;;
20535;SDS011;10426;49.420;8.390;2023-02-12T00:25:08;22.58;;;19.70;;
20535;SDS011;10426;49.420;8.390;2023-02-12T00:27:35;22.98;;;20.23;;
20535;SDS011;10426;49.420;8.390;2023-02-12T00:30:01;21.92;;;19.63;;
20535;SDS011;10426;49.420;8.390;2023-02-12T00:32:28;23.35;;;20.20;;
20535;SDS011;10426;49.420;8.390;2023-02-12T00:34:54;23.67;;;20.42;;
20535;SDS011;10426;49.420;8.390;2023-02-12T00:37:21;23.17;;;20.40;;
20535;SDS011;10426;49.420;8.390;2023-02-12T00:39:48;24.35;;;20.27;;
20535;SDS011;10426;49.420;8.390;2023-02-12T00:42:16;25.92;;;22.08;;
20535;SDS011;10426;49.420;8.390;2023-02-12T00:44:42;27.23;;;22.17;;
20535;SDS011;10426;49.420;8.390;2023-02-12T00:47:09;27.20;;;22.55;;
20535;SDS011;10426;49.420;8.390;2023-02-12T00:49:35;25.92;;;22.30;;
20535;SDS011;10426;49.420;8.390;2023-02-12T00:52:02;34.53;;;25.97;;
20535;SDS011;10426;49.420;8.390;2023-02-12T00:54:30;23.30;;;19.83;;
20535;SDS011;10426;49.420;8.390;2023-02-12T00:56:56;29.13;;;22.30;;
20535;SDS011;10426;49.420;8.390;2023-02-12T00:59:25;28.02;;;21.35;;
20535;SDS011;10426;49.420;8.390;2023-02-12T01:01:52;29.17;;;22.42;;
20535;SDS011;10426;49.420;8.390;2023-02-12T01:04:19;27.38;;;21.70;;
20535;SDS011;10426;49.420;8.390;2023-02-12T01:06:46;28.23;;;22.45;;
20535;SDS011;10426;49.420;8.390;2023-02-12T01:09:13;25.25;;;21.27;;
20535;SDS011;10426;49.420;8.390;2023-02-12T01:11:40;23.38;;;20.45;;
20535;SDS011;10426;49.420;8.390;2023-02-12T01:14:07;22.95;;;19.98;;
20535;SDS011;10426;49.420;8.390;2023-02-12T01:16:35;23.10;;;19.20;;
20535;SDS011;10426;49.420;8.390;2023-02-12T01:19:02;21.60;;;19.30;;
20535;SDS011;10426;49.420;8.390;2023-02-12T01:21:30;22.10;;;19.65;;
20535;SDS011;10426;49.420;8.390;2023-02-12T01:23:57;24.20;;;20.77;;
20535;SDS011;10426;49.420;8.390;2023-02-12T01:26:24;21.15;;;18.88;;
20535;SDS011;10426;49.420;8.390;2023-02-12T01:28:52;21.83;;;19.42;;
20535;SDS011;10426;49.420;8.390;2023-02-12T01:31:20;21.05;;;18.75;;
20535;SDS011;10426;49.420;8.390;2023-02-12T01:33:48;19.70;;;17.60;;
20535;SDS011;10426;49.420;8.390;2023-02-12T01:36:15;19.15;;;17.13;;
20535;SDS011;10426;49.420;8.390;2023-02-12T01:38:42;18.25;;;16.40;;
20535;SDS011;10426;49.420;8.390;2023-02-12T01:41:10;19.02;;;17.05;;
20535;SDS011;10426;49.420;8.390;2023-02-12T01:43:37;18.65;;;16.70;;
20535;SDS011;10426;49.420;8.390;2023-02-12T01:46:04;18.88;;;16.52;;
20535;SDS011;10426;49.420;8.390;2023-02-12T01:48:31;18.90;;;16.85;;
20535;SDS011;10426;49.420;8.390;2023-02-12T01:51:00;18.52;;;16.60;;
20535;SDS011;10426;49.420;8.390;2023-02-12T01:53:28;20.15;;;17.10;;
20535;SDS011;10426;49.420;8.390;2023-02-12T01:55:57;19.27;;;17.08;;
20535;SDS011;10426;49.420;8.390;2023-02-12T01:58:25;19.98;;;17.70;;
20535;SDS011;10426;49.420;8.390;2023-02-12T02:00:52;19.27;;;17.23;;
20535;SDS011;10426;49.420;8.390;2023-02-12T02:03:19;19.60;;;17.50;;
20535;SDS011;10426;49.420;8.390;2023-02-12T02:05:46;19.52;;;17.52;;
20535;SDS011;10426;49.420;8.390;2023-02-12T02:08:15;19.55;;;17.30;;
20535;SDS011;10426;49.420;8.390;2023-02-12T02:10:42;21.00;;;18.02;;
20535;SDS011;10426;49.420;8.390;2023-02-12T02:13:08;20.27;;;18.10;;
20535;SDS011;10426;49.420;8.390;2023-02-12T02:15:53;18.73;;;16.70;;
20535;SDS011;10426;49.420;8.390;2023-02-12T02:18:23;21.17;;;17.80;;
20535;SDS011;10426;49.420;8.390;2023-02-12T02:21:04;21.35;;;17.95;;
20535;SDS011;10426;49.420;8.390;2023-02-12T02:23:47;20.33;;;17.83;;
20535;SDS011;10426;49.420;8.390;2023-02-12T02:26:32;19.25;;;17.25;;
20535;SDS011;10426;49.420;8.390;2023-02-12T02:29:12;19.92;;;17.33;;
20535;SDS011;10426;49.420;8.390;2023-02-12T02:31:46;19.58;;;17.50;;
20535;SDS011;10426;49.420;8.390;2023-02-12T02:34:15;19.30;;;17.30;;
20535;SDS011;10426;49.420;8.390;2023-02-12T02:36:44;19.83;;;17.73;;
20535;SDS011;10426;49.420;8.390;2023-02-12T02:39:14;20.35;;;18.20;;
20535;SDS011;10426;49.420;8.390;2023-02-12T02:41:42;20.77;;;18.17;;
20535;SDS011;10426;49.420;8.390;2023-02-12T02:44:12;19.00;;;17.05;;
20535;SDS011;10426;49.420;8.390;2023-02-12T02:46:41;19.40;;;17.40;;
20535;SDS011;10426;49.420;8.390;2023-02-12T02:49:12;19.85;;;17.75;;
20535;SDS011;10426;49.420;8.390;2023-02-12T02:51:42;19.50;;;17.48;;
20535;SDS011;10426;49.420;8.390;2023-02-12T02:54:11;20.40;;;18.35;;
20535;SDS011;10426;49.420;8.390;2023-02-12T02:56:40;20.23;;;17.88;;
20535;SDS011;10426;49.420;8.390;2023-02-12T02:59:09;20.33;;;18.10;;
20535;SDS011;10426;49.420;8.390;2023-02-12T03:01:37;21.17;;;18.90;;
20535;SDS011;10426;49.420;8.390;2023-02-12T03:04:06;21.55;;;19.25;;
20535;SDS011;10426;49.420;8.390;2023-02-12T03:06:35;19.85;;;17.75;;
20535;SDS011;10426;49.420;8.390;2023-02-12T03:09:05;21.13;;;18.83;;
20535;SDS011;10426;49.420;8.390;2023-02-12T03:11:34;21.17;;;18.90;;
20535;SDS011;10426;49.420;8.390;2023-02-12T03:14:01;20.33;;;18.10;;
20535;SDS011;10426;49.420;8.390;2023-02-12T03:16:30;20.63;;;18.42;;
20535;SDS011;10426;49.420;8.390;2023-02-12T03:18:58;20.30;;;18.20;;
20535;SDS011;10426;49.420;8.390;2023-02-12T03:21:28;20.17;;;18.05;;
20535;SDS011;10426;49.420;8.390;2023-02-12T03:23:57;20.95;;;18.75;;
20535;SDS011;10426;49.420;8.390;2023-02-12T03:26:27;20.63;;;18.52;;
20535;SDS011;10426;49.420;8.390;2023-02-12T03:28:57;20.98;;;18.45;;
20535;SDS011;10426;49.420;8.390;2023-02-12T03:31:26;21.13;;;18.35;;
20535;SDS011;10426;49.420;8.390;2023-02-12T03:33:59;20.43;;;18.23;;
20535;SDS011;10426;49.420;8.390;2023-02-12T03:36:32;20.88;;;18.67;;
20535;SDS011;10426;49.420;8.390;2023-02-12T03:39:04;20.40;;;18.20;;
20535;SDS011;10426;49.420;8.390;2023-02-12T03:41:36;21.63;;;19.33;;
20535;SDS011;10426;49.420;8.390;2023-02-12T03:44:07;20.60;;;18.40;;
20535;SDS011;10426;49.420;8.390;2023-02-12T03:46:38;23.60;;;20.00;;
20535;SDS011;10426;49.420;8.390;2023-02-12T03:49:07;21.98;;;19.67;;
20535;SDS011;10426;49.420;8.390;2023-02-12T03:51:36;22.13;;;19.83;;
20535;SDS011;10426;49.420;8.390;2023-02-12T03:54:05;22.80;;;20.23;;
20535;SDS011;10426;49.420;8.390;2023-02-12T03:56:34;22.60;;;20.20;;
20535;SDS011;10426;49.420;8.390;2023-02-12T03:59:03;22.40;;;20.10;;
20535;SDS011;10426;49.420;8.390;2023-02-12T04:01:30;22.08;;;19.60;;
20535;SDS011;10426;49.420;8.390;2023-02-12T04:03:57;21.77;;;19.40;;
20535;SDS011;10426;49.420;8.390;2023-02-12T04:06:25;22.98;;;20.48;;
20535;SDS011;10426;49.420;8.390;2023-02-12T04:08:52;23.55;;;20.48;;
20535;SDS011;10426;49.420;8.390;2023-02-12T04:11:22;23.65;;;20.67;;
20535;SDS011;10426;49.420;8.390;2023-02-12T04:13:54;22.00;;;19.33;;
20535;SDS011;10426;49.420;8.390;2023-02-12T04:16:28;22.93;;;20.53;;
20535;SDS011;10426;49.420;8.390;2023-02-12T04:18:58;21.40;;;18.60;;
20535;SDS011;10426;49.420;8.390;2023-02-12T04:21:32;21.23;;;18.90;;
20535;SDS011;10426;49.420;8.390;2023-02-12T04:24:04;21.25;;;19.15;;
20535;SDS011;10426;49.420;8.390;2023-02-12T04:26:35;22.30;;;19.92;;
20535;SDS011;10426;49.420;8.390;2023-02-12T04:29:05;21.90;;;19.60;;
20535;SDS011;10426;49.420;8.390;2023-02-12T04:31:35;21.88;;;19.45;;
20535;SDS011;10426;49.420;8.390;2023-02-12T04:34:05;22.83;;;20.42;;
20535;SDS011;10426;49.420;8.390;2023-02-12T04:36:34;21.80;;;19.60;;
20535;SDS011;10426;49.420;8.390;2023-02-12T04:39:03;20.90;;;18.80;;
20535;SDS011;10426;49.420;8.390;2023-02-12T04:41:36;21.60;;;19.30;;
20535;SDS011;10426;49.420;8.390;2023-02-12T04:44:16;23.05;;;20.23;;
20535;SDS011;10426;49.420;8.390;2023-02-12T04:46:44;20.77;;;18.67;;
20535;SDS011;10426;49.420;8.390;2023-02-12T04:49:12;22.13;;;19.65;;
20535;SDS011;10426;49.420;8.390;2023-02-12T04:51:40;22.15;;;19.70;;
20535;SDS011;10426;49.420;8.390;2023-02-12T04:54:07;21.07;;;18.87;;
20535;SDS011;10426;49.420;8.390;2023-02-12T04:56:33;21.17;;;18.90;;
20535;SDS011;10426;49.420;8.390;2023-02-12T04:59:01;22.40;;;20.00;;
20535;SDS011;10426;49.420;8.390;2023-02-12T05:01:28;21.30;;;19.13;;
20535;SDS011;10426;49.420;8.390;2023-02-12T05:03:55;21.05;;;18.95;;
20535;SDS011;10426;49.420;8.390;2023-02-12T05:06:21;20.80;;;18.63;;
20535;SDS011;10426;49.420;8.390;2023-02-12T05:08:48;22.33;;;18.92;;
20535;SDS011;10426;49.420;8.390;2023-02-12T05:11:14;20.97;;;18.87;;
20535;SDS011;10426;49.420;8.390;2023-02-12T05:13:41;22.17;;;19.83;;
20535;SDS011;10426;49.420;8.390;2023-02-12T05:16:09;22.08;;;19.67;;
20535;SDS011;10426;49.420;8.390;2023-02-12T05:18:36;21.00;;;18.75;;
20535;SDS011;10426;49.420;8.390;2023-02-12T05:21:03;20.42;;;18.23;;
20535;SDS011;10426;49.420;8.390;2023-02-12T05:23:30;21.35;;;19.23;;
20535;SDS011;10426;49.420;8.390;2023-02-12T05:25:57;21.80;;;19.52;;
20535;SDS011;10426;49.420;8.390;2023-02-12T05:28:24;21.00;;;18.25;;
20535;SDS011;10426;49.420;8.390;2023-02-12T05:30:51;22.20;;;19.83;;
20535;SDS011;10426;49.420;8.390;2023-02-12T05:33:19;22.10;;;19.80;;
20535;SDS011;10426;49.420;8.390;2023-02-12T05:35:46;21.77;;;19.52;;
20535;SDS011;10426;49.420;8.390;2023-02-12T05:38:12;22.48;;;19.90;;
20535;SDS011;10426;49.420;8.390;2023-02-12T05:40:39;22.10;;;19.70;;
20535;SDS011;10426;49.420;8.390;2023-02-12T05:43:10;21.27;;;19.02;;
20535;SDS011;10426;49.420;8.390;2023-02-12T05:45:36;20.17;;;18.13;;
20535;SDS011;10426;49.420;8.390;2023-02-12T05:48:05;21.73;;;19.42;;
20535;SDS011;10426;49.420;8.390;2023-02-12T05:50:33;21.13;;;19.03;;
20535;SDS011;10426;49.420;8.390;2023-02-12T05:53:00;21.88;;;19.58;;
20535;SDS011;10426;49.420;8.390;2023-02-12T05:55:26;22.60;;;19.15;;
20535;SDS011;10426;49.420;8.390;2023-02-12T05:57:53;20.30;;;18.15;;
20535;SDS011;10426;49.420;8.390;2023-02-12T06:00:20;20.42;;;18.23;;
20535;SDS011;10426;49.420;8.390;2023-02-12T06:02:47;20.63;;;18.52;;
20535;SDS011;10426;49.420;8.390;2023-02-12T06:05:13;22.58;;;19.48;;
20535;SDS011;10426;49.420;8.390;2023-02-12T06:07:41;20.58;;;18.38;;
20535;SDS011;10426;49.420;8.390;2023-02-12T06:10:08;20.85;;;18.65;;
20535;SDS011;10426;49.420;8.390;2023-02-12T06:12:35;20.98;;;18.88;;
20535;SDS011;10426;49.420;8.390;2023-02-12T06:15:01;20.92;;;18.80;;
20535;SDS011;10426;49.420;8.390;2023-02-12T06:17:28;23.83;;;20.67;;
20535;SDS011;10426;49.420;8.390;2023-02-12T06:19:55;20.70;;;18.58;;
20535;SDS011;10426;49.420;8.390;2023-02-12T06:22:21;20.65;;;18.45;;
20535;SDS011;10426;49.420;8.390;2023-02-12T06:24:49;22.05;;;19.45;;
20535;SDS011;10426;49.420;8.390;2023-02-12T06:27:16;22.52;;;20.15;;
20535;SDS011;10426;49.420;8.390;2023-02-12T06:29:43;23.05;;;19.77;;
20535;SDS011;10426;49.420;8.390;2023-02-12T06:32:09;23.60;;;20.52;;
20535;SDS011;10426;49.420;8.390;2023-02-12T06:34:37;23.55;;;20.77;;
20535;SDS011;10426;49.420;8.390;2023-02-12T06:37:04;24.73;;;21.55;;
20535;SDS011;10426;49.420;8.390;2023-02-12T06:39:31;25.33;;;22.52;;
20535;SDS011;10426;49.420;8.390;2023-02-12T06:41:59;26.58;;;23.60;;
20535;SDS011;10426;49.420;8.390;2023-02-12T06:44:26;28.75;;;25.65;;
20535;SDS011;10426;49.420;8.390;2023-02-12T06:46:52;28.83;;;25.58;;
20535;SDS011;10426;49.420;8.390;2023-02-12T06:49:19;27.98;;;23.90;;
20535;SDS011;10426;49.420;8.390;2023-02-12T06:51:45;27.48;;;24.10;;
20535;SDS011;10426;49.420;8.390;2023-02-12T06:54:12;29.67;;;24.80;;
20535;SDS011;10426;49.420;8.390;2023-02-12T06:56:39;24.95;;;22.23;;
20535;SDS011;10426;49.420;8.390;2023-02-12T06:59:09;25.95;;;22.27;;
20535;SDS011;10426;49.420;8.390;2023-02-12T07:01:37;25.20;;;22.52;;
20535;SDS011;10426;49.420;8.390;2023-02-12T07:04:04;23.35;;;20.92;;
20535;SDS011;10426;49.420;8.390;2023-02-12T07:06:32;25.30;;;21.80;;
20535;SDS011;10426;49.420;8.390;2023-02-12T07:08:59;25.75;;;22.52;;
20535;SDS011;10426;49.420;8.390;2023-02-12T07:11:26;23.25;;;20.67;;
20535;SDS011;10426;49.420;8.390;2023-02-12T07:13:53;24.15;;;20.90;;
20535;SDS011;10426;49.420;8.390;2023-02-12T07:16:21;23.63;;;21.08;;
20535;SDS011;10426;49.420;8.390;2023-02-12T07:18:48;23.40;;;21.02;;
20535;SDS011;10426;49.420;8.390;2023-02-12T07:21:15;26.08;;;22.15;;
20535;SDS011;10426;49.420;8.390;2023-02-12T07:23:44;21.92;;;19.60;;
20535;SDS011;10426;49.420;8.390;2023-02-12T07:26:12;23.75;;;21.25;;
20535;SDS011;10426;49.420;8.390;2023-02-12T07:28:39;22.90;;;20.55;;
20535;SDS011;10426;49.420;8.390;2023-02-12T07:31:06;24.33;;;21.60;;
20535;SDS011;10426;49.420;8.390;2023-02-12T07:33:34;24.88;;;22.30;;
20535;SDS011;10426;49.420;8.390;2023-02-12T07:36:01;26.15;;;23.13;;
20535;SDS011;10426;49.420;8.390;2023-02-12T07:38:28;34.97;;;27.73;;
20535;SDS011;10426;49.420;8.390;2023-02-12T07:40:54;34.72;;;28.65;;
20535;SDS011;10426;49.420;8.390;2023-02-12T07:43:23;33.88;;;26.95;;
20535;SDS011;10426;49.420;8.390;2023-02-12T07:45:49;31.92;;;25.95;;
20535;SDS011;10426;49.420;8.390;2023-02-12T07:48:16;27.48;;;24.25;;
20535;SDS011;10426;49.420;8.390;2023-02-12T07:50:44;28.98;;;24.73;;
20535;SDS011;10426;49.420;8.390;2023-02-12T07:53:11;26.20;;;23.40;;
20535;SDS011;10426;49.420;8.390;2023-02-12T07:55:37;26.35;;;23.60;;
20535;SDS011;10426;49.420;8.390;2023-02-12T07:58:04;27.52;;;24.00;;
20535;SDS011;10426;49.420;8.390;2023-02-12T08:00:31;25.40;;;22.73;;
20535;SDS011;10426;49.420;8.390;2023-02-12T08:02:57;27.98;;;23.17;;
20535;SDS011;10426;49.420;8.390;2023-02-12T08:05:24;26.90;;;23.83;;
20535;SDS011;10426;49.420;8.390;2023-02-12T08:07:52;26.33;;;23.50;;
20535;SDS011;10426;49.420;8.390;2023-02-12T08:10:19;28.55;;;23.85;;
20535;SDS011;10426;49.420;8.390;2023-02-12T08:12:46;27.20;;;24.13;;
20535;SDS011;10426;49.420;8.390;2023-02-12T08:15:13;30.00;;;24.52;;
20535;SDS011;10426;49.420;8.390;2023-02-12T08:17:40;26.98;;;24.02;;
20535;SDS011;10426;49.420;8.390;2023-02-12T08:20:08;29.13;;;24.20;;
20535;SDS011;10426;49.420;8.390;2023-02-12T08:22:34;28.75;;;24.00;;
20535;SDS011;10426;49.420;8.390;2023-02-12T08:25:02;26.35;;;23.48;;
20535;SDS011;10426;49.420;8.390;2023-02-12T08:27:29;26.98;;;24.00;;
20535;SDS011;10426;49.420;8.390;2023-02-12T08:29:56;27.33;;;23.25;;
20535;SDS011;10426;49.420;8.390;2023-02-12T08:32:22;25.85;;;23.13;;
20535;SDS011;10426;49.420;8.390;2023-02-12T08:34:49;27.08;;;24.27;;
20535;SDS011;10426;49.420;8.390;2023-02-12T08:37:15;26.55;;;23.75;;
20535;SDS011;10426;49.420;8.390;2023-02-12T08:39:42;25.27;;;22.55;;
20535;SDS011;10426;49.420;8.390;2023-02-12T08:42:10;27.60;;;24.05;;
20535;SDS011;10426;49.420;8.390;2023-02-12T08:44:36;25.88;;;23.23;;
20535;SDS011;10426;49.420;8.390;2023-02-12T08:47:05;26.45;;;23.50;;
20535;SDS011;10426;49.420;8.390;2023-02-12T08:49:31;25.63;;;22.30;;
20535;SDS011;10426;49.420;8.390;2023-02-12T08:51:58;24.77;;;22.17;;
20535;SDS011;10426;49.420;8.390;2023-02-12T08:54:26;24.55;;;22.00;;
20535;SDS011;10426;49.420;8.390;2023-02-12T08:56:53;25.37;;;22.67;;
20535;SDS011;10426;49.420;8.390;2023-02-12T08:59:21;26.63;;;22.95;;
20535;SDS011;10426;49.420;8.390;2023-02-12T09:01:48;25.30;;;22.50;;
20535;SDS011;10426;49.420;8.390;2023-02-12T09:04:16;25.52;;;22.80;;
20535;SDS011;10426;49.420;8.390;2023-02-12T09:06:43;26.13;;;23.33;;
20535;SDS011;10426;49.420;8.390;2023-02-12T09:09:10;27.43;;;24.50;;
20535;SDS011;10426;49.420;8.390;2023-02-12T09:11:37;27.75;;;24.83;;
20535;SDS011;10426;49.420;8.390;2023-02-12T09:14:04;27.02;;;24.08;;
20535;SDS011;10426;49.420;8.390;2023-02-12T09:16:33;26.02;;;23.33;;
20535;SDS011;10426;49.420;8.390;2023-02-12T09:19:00;28.10;;;25.20;;
20535;SDS011;10426;49.420;8.390;2023-02-12T09:21:26;27.47;;;24.50;;
20535;SDS011;10426;49.420;8.390;2023-02-12T09:23:53;27.60;;;24.38;;
20535;SDS011;10426;49.420;8.390;2023-02-12T09:26:20;27.98;;;24.88;;
20535;SDS011;10426;49.420;8.390;2023-02-12T09:28:48;26.67;;;23.70;;
20535;SDS011;10426;49.420;8.390;2023-02-12T09:31:15;26.20;;;23.40;;
20535;SDS011;10426;49.420;8.390;2023-02-12T09:33:44;26.48;;;23.75;;
20535;SDS011;10426;49.420;8.390;2023-02-12T09:36:11;27.50;;;24.50;;
20535;SDS011;10426;49.420;8.390;2023-02-12T09:38:38;26.97;;;23.83;;
20535;SDS011;10426;49.420;8.390;2023-02-12T09:41:11;27.67;;;23.93;;
20535;SDS011;10426;49.420;8.390;2023-02-12T09:43:41;28.27;;;23.80;;
20535;SDS011;10426;49.420;8.390;2023-02-12T09:46:11;26.75;;;23.98;;
20535;SDS011;10426;49.420;8.390;2023-02-12T09:48:50;27.50;;;24.58;;
20535;SDS011;10426;49.420;8.390;2023-02-12T09:51:19;26.20;;;23.50;;
20535;SDS011;10426;49.420;8.390;2023-02-12T09:53:46;27.83;;;24.83;;
20535;SDS011;10426;49.420;8.390;2023-02-12T09:56:15;29.85;;;25.45;;
20535;SDS011;10426;49.420;8.390;2023-02-12T09:58:45;27.98;;;24.65;;
20535;SDS011;10426;49.420;8.390;2023-02-12T10:01:13;26.15;;;23.45;;
20535;SDS011;10426;49.420;8.390;2023-02-12T10:03:39;27.08;;;24.10;;
20535;SDS011;10426;49.420;8.390;2023-02-12T10:06:10;26.92;;;24.02;;
20535;SDS011;10426;49.420;8.390;2023-02-12T10:08:41;27.00;;;24.03;;
20535;SDS011;10426;49.420;8.390;2023-02-12T10:11:18;27.20;;;24.42;;
20535;SDS011;10426;49.420;8.390;2023-02-12T10:13:49;26.80;;;23.88;;
20535;SDS011;10426;49.420;8.390;2023-02-12T10:16:22;27.67;;;24.70;;
20535;SDS011;10426;49.420;8.390;2023-02-12T10:18:58;41.53;;;35.30;;
20535;SDS011;10426;49.420;8.390;2023-02-12T10:21:36;30.15;;;25.83;;
20535;SDS011;10426;49.420;8.390;2023-02-12T10:24:19;27.75;;;24.75;;
20535;SDS011;10426;49.420;8.390;2023-02-12T10:26:48;29.48;;;26.30;;
20535;SDS011;10426;49.420;8.390;2023-02-12T10:29:16;28.53;;;25.53;;
20535;SDS011;10426;49.420;8.390;2023-02-12T10:31:44;29.42;;;25.70;;
20535;SDS011;10426;49.420;8.390;2023-02-12T10:34:14;31.17;;;26.00;;
20535;SDS011;10426;49.420;8.390;2023-02-12T10:36:43;30.15;;;24.80;;
20535;SDS011;10426;49.420;8.390;2023-02-12T10:39:11;29.92;;;24.98;;
20535;SDS011;10426;49.420;8.390;2023-02-12T10:41:40;28.58;;;25.35;;
20535;SDS011;10426;49.420;8.390;2023-02-12T10:44:09;28.00;;;24.83;;
20535;SDS011;10426;49.420;8.390;2023-02-12T10:46:35;28.58;;;24.17;;
20535;SDS011;10426;49.420;8.390;2023-02-12T10:49:02;27.40;;;24.07;;
20535;SDS011;10426;49.420;8.390;2023-02-12T10:51:35;26.92;;;24.13;;
20535;SDS011;10426;49.420;8.390;2023-02-12T10:56:50;28.50;;;25.45;;
20535;SDS011;10426;49.420;8.390;2023-02-12T10:59:21;29.67;;;26.20;;
20535;SDS011;10426;49.420;8.390;2023-02-12T11:01:48;28.75;;;25.65;;
20535;SDS011;10426;49.420;8.390;2023-02-12T11:04:18;29.70;;;25.75;;
20535;SDS011;10426;49.420;8.390;2023-02-12T11:06:55;31.83;;;25.60;;
20535;SDS011;10426;49.420;8.390;2023-02-12T11:09:26;29.40;;;25.48;;
20535;SDS011;10426;49.420;8.390;2023-02-12T11:11:55;29.60;;;24.80;;
20535;SDS011;10426;49.420;8.390;2023-02-12T11:14:21;31.33;;;25.77;;
20535;SDS011;10426;49.420;8.390;2023-02-12T11:16:52;34.75;;;26.27;;
20535;SDS011;10426;49.420;8.390;2023-02-12T11:19:20;29.60;;;24.85;;
20535;SDS011;10426;49.420;8.390;2023-02-12T11:21:47;32.10;;;24.98;;
20535;SDS011;10426;49.420;8.390;2023-02-12T11:27:22;29.33;;;24.17;;
20535;SDS011;10426;49.420;8.390;2023-02-12T11:30:03;29.65;;;24.55;;
20535;SDS011;10426;49.420;8.390;2023-02-12T11:32:31;26.95;;;22.92;;
20535;SDS011;10426;49.420;8.390;2023-02-12T11:35:03;25.50;;;22.38;;
20535;SDS011;10426;49.420;8.390;2023-02-12T11:37:29;24.63;;;21.33;;
20535;SDS011;10426;49.420;8.390;2023-02-12T11:39:58;23.70;;;21.00;;
20535;SDS011;10426;49.420;8.390;2023-02-12T11:42:26;21.00;;;18.15;;
20535;SDS011;10426;49.420;8.390;2023-02-12T11:44:54;17.90;;;15.00;;
20535;SDS011;10426;49.420;8.390;2023-02-12T11:47:22;16.73;;;14.00;;
20535;SDS011;10426;49.420;8.390;2023-02-12T11:49:51;12.73;;;11.48;;
20535;SDS011;10426;49.420;8.390;2023-02-12T11:52:19;10.65;;;9.57;;
20535;SDS011;10426;49.420;8.390;2023-02-12T11:54:46;12.10;;;10.90;;
20535;SDS011;10426;49.420;8.390;2023-02-12T11:59:57;22.95;;;19.25;;
20535;SDS011;10426;49.420;8.390;2023-02-12T12:02:26;18.27;;;16.20;;
20535;SDS011;10426;49.420;8.390;2023-02-12T12:05:02;31.75;;;24.27;;
20535;SDS011;10426;49.420;8.390;2023-02-12T12:07:31;21.35;;;18.48;;
20535;SDS011;10426;49.420;8.390;2023-02-12T12:10:00;11.65;;;10.02;;
20535;SDS011;10426;49.420;8.390;2023-02-12T12:12:31;10.00;;;9.00;;
20535;SDS011;10426;49.420;8.390;2023-02-12T12:15:00;12.00;;;10.80;;
20535;SDS011;10426;49.420;8.390;2023-02-12T12:17:47;11.00;;;9.90;;
20535;SDS011;10426;49.420;8.390;2023-02-12T12:20:34;12.60;;;11.35;;
20535;SDS011;10426;49.420;8.390;2023-02-12T12:23:02;10.95;;;9.85;;
20535;SDS011;10426;49.420;8.390;2023-02-12T12:25:30;5.80;;;5.20;;
20535;SDS011;10426;49.420;8.390;2023-02-12T12:27:59;5.70;;;5.20;;
20535;SDS011;10426;49.420;8.390;2023-02-12T12:30:38;11.45;;;10.13;;
20535;SDS011;10426;49.420;8.390;2023-02-12T12:33:09;8.13;;;7.32;;
20535;SDS011;10426;49.420;8.390;2023-02-12T12:35:38;8.40;;;6.78;;
20535;SDS011;10426;49.420;8.390;2023-02-12T12:38:11;32.60;;;21.65;;
20535;SDS011;10426;49.420;8.390;2023-02-12T12:40:47;7.20;;;6.50;;
20535;SDS011;10426;49.420;8.390;2023-02-12T12:43:18;4.40;;;4.05;;
20535;SDS011;10426;49.420;8.390;2023-02-12T12:45:56;5.40;;;2.80;;
20535;SDS011;10426;49.420;8.390;2023-02-12T12:48:30;4.67;;;4.23;;
20535;SDS011;10426;49.420;8.390;2023-02-12T12:51:04;2.88;;;2.70;;
20535;SDS011;10426;49.420;8.390;2023-02-12T12:53:37;2.65;;;2.55;;
20535;SDS011;10426;49.420;8.390;2023-02-12T12:58:56;2.63;;;2.42;;
20535;SDS011;10426;49.420;8.390;2023-02-12T13:01:42;2.50;;;2.40;;
20535;SDS011;10426;49.420;8.390;2023-02-12T13:04:30;2.65;;;2.55;;
20535;SDS011;10426;49.420;8.390;2023-02-12T13:07:06;2.80;;;2.60;;
20535;SDS011;10426;49.420;8.390;2023-02-12T13:09:39;2.67;;;2.55;;
20535;SDS011;10426;49.420;8.390;2023-02-12T13:12:24;2.70;;;2.60;;
20535;SDS011;10426;49.420;8.390;2023-02-12T13:14:55;2.50;;;2.40;;
20535;SDS011;10426;49.420;8.390;2023-02-12T13:17:28;2.80;;;2.65;;
20535;SDS011;10426;49.420;8.390;2023-02-12T13:20:01;2.60;;;2.50;;
20535;SDS011;10426;49.420;8.390;2023-02-12T13:22:31;2.60;;;2.50;;
20535;SDS011;10426;49.420;8.390;2023-02-12T13:25:01;2.80;;;2.70;;
20535;SDS011;10426;49.420;8.390;2023-02-12T13:27:29;2.90;;;2.80;;
20535;SDS011;10426;49.420;8.390;2023-02-12T13:29:58;3.03;;;2.90;;
20535;SDS011;10426;49.420;8.390;2023-02-12T13:32:28;2.67;;;2.58;;
20535;SDS011;10426;49.420;8.390;2023-02-12T13:34:55;2.60;;;2.50;;
20535;SDS011;10426;49.420;8.390;2023-02-12T13:37:24;2.80;;;2.70;;
20535;SDS011;10426;49.420;8.390;2023-02-12T13:39:54;2.80;;;2.70;;
20535;SDS011;10426;49.420;8.390;2023-02-12T13:42:35;2.60;;;2.50;;
20535;SDS011;10426;49.420;8.390;2023-02-12T13:45:06;2.80;;;2.70;;
20535;SDS011;10426;49.420;8.390;2023-02-12T13:47:44;2.70;;;2.60;;
20535;SDS011;10426;49.420;8.390;2023-02-12T13:50:18;4.03;;;3.63;;
20535;SDS011;10426;49.420;8.390;2023-02-12T13:52:48;3.50;;;3.20;;
20535;SDS011;10426;49.420;8.390;2023-02-12T13:55:20;2.75;;;2.63;;
20535;SDS011;10426;49.420;8.390;2023-02-12T14:03:12;3.40;;;3.20;;
20535;SDS011;10426;49.420;8.390;2023-02-12T14:05:39;3.60;;;3.40;;
20535;SDS011;10426;49.420;8.390;2023-02-12T14:08:06;3.00;;;2.80;;
20535;SDS011;10426;49.420;8.390;2023-02-12T14:10:34;3.80;;;3.50;;
20535;SDS011;10426;49.420;8.390;2023-02-12T14:13:09;3.10;;;2.90;;
20535;SDS011;10426;49.420;8.390;2023-02-12T14:15:38;3.10;;;2.90;;
20535;SDS011;10426;49.420;8.390;2023-02-12T14:23:43;6.47;;;5.88;;
20535;SDS011;10426;49.420;8.390;2023-02-12T14:26:10;5.80;;;5.30;;
20535;SDS011;10426;49.420;8.390;2023-02-12T14:28:48;6.80;;;6.20;;
20535;SDS011;10426;49.420;8.390;2023-02-12T14:31:28;5.87;;;5.37;;
20535;SDS011;10426;49.420;8.390;2023-02-12T14:36:37;5.53;;;5.03;;
20535;SDS011;10426;49.420;8.390;2023-02-12T14:39:25;5.70;;;5.20;;
20535;SDS011;10426;49.420;8.390;2023-02-12T14:41:53;6.93;;;6.15;;
20535;SDS011;10426;49.420;8.390;2023-02-12T14:47:11;5.63;;;5.10;;
20535;SDS011;10426;49.420;8.390;2023-02-12T14:49:39;6.43;;;5.93;;
20535;SDS011;10426;49.420;8.390;2023-02-12T14:52:12;5.17;;;4.73;;
20535;SDS011;10426;49.420;8.390;2023-02-12T14:54:42;5.28;;;4.80;;
20535;SDS011;10426;49.420;8.390;2023-02-12T14:57:11;4.60;;;4.30;;
20535;SDS011;10426;49.420;8.390;2023-02-12T14:59:40;5.15;;;4.75;;
20535;SDS011;10426;49.420;8.390;2023-02-12T15:02:11;8.77;;;8.00;;
20535;SDS011;10426;49.420;8.390;2023-02-12T15:04:39;5.15;;;4.75;;